createdAt,value
2019-02-23T00:00:44.016Z,63.50
2019-02-23T00:03:12.767Z,63.60
2019-02-23T00:05:41.583Z,63.90
2019-02-23T00:08:10.401Z,63.80
2019-02-23T00:10:39.099Z,64.00
2019-02-23T00:13:07.758Z,63.80
2019-02-23T00:15:36.435Z,64.10
2019-02-23T00:18:05.089Z,64.30
2019-02-23T00:20:33.805Z,64.40
2019-02-23T00:23:02.569Z,64.40
2019-02-23T00:25:31.234Z,64.60
2019-02-23T00:27:59.922Z,65.10
2019-02-23T00:30:28.806Z,65.60
2019-02-23T00:32:57.477Z,65.50
2019-02-23T00:35:26.184Z,65.40
2019-02-23T00:37:54.847Z,65.90
2019-02-23T00:40:23.563Z,66.20
2019-02-23T00:42:52.223Z,66.00
2019-02-23T00:45:20.976Z,65.80
2019-02-23T00:47:49.685Z,65.60
2019-02-23T00:50:18.341Z,66.40
2019-02-23T00:52:46.998Z,66.70
2019-02-23T00:55:15.690Z,66.70
2019-02-23T00:57:44.340Z,66.80
2019-02-23T01:00:13.470Z,67.00
2019-02-23T01:02:42.121Z,68.10
2019-02-23T01:05:11.503Z,67.60
2019-02-23T01:07:40.180Z,67.90
2019-02-23T01:10:10.275Z,67.60
2019-02-23T01:12:38.954Z,67.50
2019-02-23T01:15:09.524Z,67.40
2019-02-23T01:17:38.176Z,67.40
2019-02-23T01:20:09.052Z,67.40
2019-02-23T01:22:37.741Z,67.40
2019-02-23T01:25:07.170Z,67.40
2019-02-23T01:27:36.410Z,67.40
2019-02-23T01:30:07.429Z,67.40
2019-02-23T01:32:36.165Z,67.40
2019-02-23T01:35:05.770Z,67.40
2019-02-23T01:37:34.426Z,67.40
2019-02-23T01:40:03.145Z,67.50
2019-02-23T01:42:31.853Z,67.30
2019-02-23T01:45:00.557Z,67.30
2019-02-23T01:47:29.214Z,67.90
2019-02-23T01:49:59.179Z,68.70
2019-02-23T01:52:28.073Z,67.80
2019-02-23T01:54:56.773Z,68.10
2019-02-23T01:57:25.500Z,68.40
2019-02-23T01:59:54.172Z,68.30
2019-02-23T02:02:22.900Z,68.10
2019-02-23T02:04:51.645Z,68.00
2019-02-23T02:07:20.281Z,67.40
2019-02-23T02:09:48.949Z,67.60
2019-02-23T02:12:18.383Z,67.40
2019-02-23T02:14:47.052Z,67.50
2019-02-23T02:17:15.841Z,67.60
2019-02-23T02:19:44.629Z,67.50
2019-02-23T02:22:13.420Z,67.20
2019-02-23T02:24:42.095Z,67.20
2019-02-23T02:27:10.760Z,67.10
2019-02-23T02:29:39.766Z,68.10
2019-02-23T02:32:08.466Z,67.30
2019-02-23T02:34:37.173Z,67.80
2019-02-23T02:37:05.859Z,68.20
2019-02-23T02:39:34.529Z,68.50
2019-02-23T02:42:03.230Z,69.00
2019-02-23T02:44:31.891Z,69.50
2019-02-23T02:47:00.564Z,69.80
2019-02-23T02:49:29.248Z,70.40
2019-02-23T02:51:57.930Z,70.80
2019-02-23T02:54:26.641Z,70.10
2019-02-23T02:56:55.514Z,70.00
2019-02-23T02:59:24.237Z,70.30
2019-02-23T03:01:53.014Z,70.90
2019-02-23T03:04:21.687Z,71.00
2019-02-23T03:06:50.361Z,71.30
2019-02-23T03:09:19.086Z,71.30
2019-02-23T03:11:47.818Z,71.20
2019-02-23T03:14:16.464Z,71.20
2019-02-23T03:16:45.152Z,71.00
2019-02-23T03:19:13.855Z,70.30
2019-02-23T03:21:42.563Z,69.90
2019-02-23T03:24:11.249Z,69.80
2019-02-23T03:26:39.940Z,70.20
2019-02-23T03:29:08.592Z,70.60
2019-02-23T03:31:37.322Z,70.70
2019-02-23T03:34:05.955Z,70.90
2019-02-23T03:36:34.727Z,70.10
2019-02-23T03:39:04.225Z,70.20
2019-02-23T03:41:33.060Z,70.20
2019-02-23T03:44:01.800Z,70.40
2019-02-23T03:46:30.512Z,70.50
2019-02-23T03:48:59.238Z,70.50
2019-02-23T03:51:27.920Z,70.30
2019-02-23T03:53:56.592Z,70.60
2019-02-23T03:56:25.297Z,70.80
2019-02-23T03:58:53.981Z,70.40
2019-02-23T04:01:22.633Z,70.40
2019-02-23T04:03:51.337Z,70.50
2019-02-23T04:06:20.001Z,70.40
2019-02-23T04:08:48.703Z,70.70
2019-02-23T04:11:17.424Z,70.90
2019-02-23T04:13:46.061Z,71.70
2019-02-23T04:16:14.758Z,72.00
2019-02-23T04:18:43.447Z,72.40
2019-02-23T04:21:12.094Z,72.60
2019-02-23T04:23:40.773Z,72.70
2019-02-23T04:26:09.593Z,72.90
2019-02-23T04:28:38.269Z,72.70
2019-02-23T04:31:06.899Z,72.90
2019-02-23T04:33:35.793Z,72.80
2019-02-23T04:36:04.502Z,73.30
2019-02-23T04:38:33.206Z,73.80
2019-02-23T04:41:01.935Z,74.00
2019-02-23T04:43:30.614Z,74.10
2019-02-23T04:45:59.530Z,74.50
2019-02-23T04:48:28.234Z,74.60
2019-02-23T04:50:56.946Z,75.10
2019-02-23T04:53:25.645Z,75.30
2019-02-23T04:55:54.320Z,75.30
2019-02-23T04:58:23.071Z,75.60
2019-02-23T05:00:51.720Z,75.40
2019-02-23T05:03:20.371Z,75.80
2019-02-23T05:05:49.147Z,75.40
2019-02-23T05:08:17.756Z,75.50
2019-02-23T05:10:46.417Z,76.40
2019-02-23T05:13:15.122Z,75.70
2019-02-23T05:15:43.805Z,75.90
2019-02-23T05:18:12.550Z,76.50
2019-02-23T05:20:41.237Z,76.50
2019-02-23T05:23:09.939Z,76.10
2019-02-23T05:25:38.635Z,76.10
2019-02-23T05:28:07.303Z,75.90
2019-02-23T05:30:35.967Z,76.00
2019-02-23T05:33:04.645Z,76.40
2019-02-23T05:35:33.320Z,76.50
2019-02-23T05:38:01.966Z,76.60
2019-02-23T05:40:30.795Z,76.20
2019-02-23T05:43:01.265Z,75.70
2019-02-23T05:45:29.900Z,75.60
2019-02-23T05:47:58.566Z,75.40
2019-02-23T05:50:27.262Z,75.80
2019-02-23T05:52:56.005Z,75.60
2019-02-23T05:55:24.689Z,75.80
2019-02-23T05:57:53.447Z,76.00
2019-02-23T06:00:22.137Z,76.80
2019-02-23T06:02:50.841Z,77.00
2019-02-23T06:05:19.500Z,76.90
2019-02-23T06:07:48.170Z,76.80
2019-02-23T06:10:16.845Z,76.70
2019-02-23T06:12:45.570Z,76.60
2019-02-23T06:15:14.254Z,77.40
2019-02-23T06:17:42.904Z,77.70
2019-02-23T06:20:11.720Z,77.40
2019-02-23T06:22:40.413Z,78.20
2019-02-23T06:25:09.481Z,78.30
2019-02-23T06:27:38.285Z,78.40
2019-02-23T06:30:10.177Z,78.10
2019-02-23T06:32:38.874Z,77.70
2019-02-23T06:35:09.567Z,77.60
2019-02-23T06:37:38.262Z,77.00
2019-02-23T06:40:10.988Z,76.60
2019-02-23T06:42:39.656Z,76.30
2019-02-23T06:45:11.034Z,76.10
2019-02-23T06:47:39.700Z,76.00
2019-02-23T06:50:08.491Z,76.90
2019-02-23T06:52:37.190Z,76.10
2019-02-23T06:55:06.866Z,75.90
2019-02-23T06:57:35.592Z,75.80
2019-02-23T07:00:06.133Z,75.60
2019-02-23T07:02:34.787Z,75.60
2019-02-23T07:05:03.500Z,75.20
2019-02-23T07:07:32.205Z,75.20
2019-02-23T07:10:00.892Z,75.20
2019-02-23T07:12:29.676Z,74.70
2019-02-23T07:14:58.396Z,74.60
2019-02-23T07:17:27.059Z,74.60
2019-02-23T07:19:55.786Z,74.30
2019-02-23T07:22:24.430Z,74.20
2019-02-23T07:24:53.134Z,74.00
2019-02-23T07:27:21.825Z,74.00
2019-02-23T07:29:50.511Z,73.90
2019-02-23T07:32:19.181Z,73.70
2019-02-23T07:34:47.840Z,73.20
2019-02-23T07:37:16.510Z,73.00
2019-02-23T07:39:45.201Z,72.90
2019-02-23T07:42:13.880Z,72.60
2019-02-23T07:44:42.567Z,72.30
2019-02-23T07:47:11.251Z,73.00
2019-02-23T07:49:39.912Z,72.00
2019-02-23T07:52:08.605Z,71.20
2019-02-23T07:54:37.286Z,71.00
2019-02-23T07:57:05.969Z,70.30
2019-02-23T07:59:34.647Z,70.20
2019-02-23T08:02:03.337Z,69.90
2019-02-23T08:04:32.062Z,69.50
2019-02-23T08:07:00.767Z,69.00
2019-02-23T08:09:29.413Z,68.40
2019-02-23T08:11:58.154Z,67.20
2019-02-23T08:14:26.841Z,66.70
2019-02-23T08:16:55.525Z,67.00
2019-02-23T08:19:24.174Z,66.40
2019-02-23T08:21:52.919Z,64.30
2019-02-23T08:24:21.637Z,62.50
2019-02-23T08:26:50.307Z,62.90
2019-02-23T08:29:19.006Z,60.80
2019-02-23T08:31:47.705Z,60.60
2019-02-23T08:34:16.378Z,61.20
2019-02-23T08:36:45.132Z,60.40
2019-02-23T08:39:14.170Z,60.00
2019-02-23T08:41:43.346Z,59.60
2019-02-23T08:44:12.077Z,58.70
2019-02-23T08:46:40.774Z,58.00
2019-02-23T08:49:09.431Z,57.50
2019-02-23T08:51:38.147Z,57.60
2019-02-23T08:54:06.965Z,58.10
2019-02-23T08:56:35.738Z,57.60
2019-02-23T08:59:04.641Z,56.90
2019-02-23T09:01:33.434Z,57.20
2019-02-23T09:04:02.117Z,56.60
2019-02-23T09:06:30.818Z,56.40
2019-02-23T09:08:59.599Z,57.00
2019-02-23T09:11:28.481Z,57.00
2019-02-23T09:13:57.405Z,57.70
2019-02-23T09:16:26.147Z,58.30
2019-02-23T09:18:54.991Z,58.30
2019-02-23T09:21:23.948Z,57.30
2019-02-23T09:23:52.682Z,56.00
2019-02-23T09:26:21.811Z,55.60
2019-02-23T09:28:50.460Z,55.30
2019-02-23T09:31:19.157Z,56.10
2019-02-23T09:33:47.855Z,56.30
2019-02-23T09:36:16.618Z,56.70
2019-02-23T09:38:45.467Z,57.30
2019-02-23T09:41:14.213Z,57.40
2019-02-23T09:43:42.910Z,57.90
2019-02-23T09:46:11.628Z,58.50
2019-02-23T09:48:40.361Z,57.50
2019-02-23T09:51:09.096Z,57.30
2019-02-23T09:53:37.995Z,57.20
2019-02-23T09:56:06.774Z,57.40
2019-02-23T09:58:35.557Z,56.50
2019-02-23T10:01:04.260Z,54.50
2019-02-23T10:03:33.148Z,55.30
2019-02-23T10:06:02.042Z,56.20
2019-02-23T10:08:30.811Z,55.50
2019-02-23T10:10:59.515Z,55.30
2019-02-23T10:13:28.285Z,56.00
2019-02-23T10:15:56.988Z,55.40
2019-02-23T10:18:25.676Z,55.10
2019-02-23T10:20:54.468Z,54.60
2019-02-23T10:23:23.253Z,55.00
2019-02-23T10:25:52.039Z,54.40
2019-02-23T10:28:20.926Z,52.90
2019-02-23T10:30:49.707Z,52.80
2019-02-23T10:33:18.493Z,52.40
2019-02-23T10:35:47.202Z,52.70
2019-02-23T10:38:15.984Z,52.70
2019-02-23T10:40:44.672Z,52.50
2019-02-23T10:43:13.438Z,52.70
2019-02-23T10:45:42.249Z,53.20
2019-02-23T10:48:11.037Z,53.70
2019-02-23T10:50:39.929Z,54.20
2019-02-23T10:53:08.614Z,53.30
2019-02-23T10:55:37.447Z,53.30
2019-02-23T10:58:06.338Z,53.10
2019-02-23T11:00:35.125Z,53.90
2019-02-23T11:03:03.810Z,53.40
2019-02-23T11:05:32.577Z,52.40
2019-02-23T11:08:01.654Z,52.00
2019-02-23T11:10:30.443Z,51.50
2019-02-23T11:12:59.203Z,50.60
2019-02-23T11:15:28.329Z,50.70
2019-02-23T11:17:57.138Z,50.80
2019-02-23T11:20:26.393Z,49.80
2019-02-23T11:22:55.143Z,49.20
2019-02-23T11:25:23.826Z,49.70
2019-02-23T11:27:52.498Z,49.60
2019-02-23T11:30:21.262Z,48.80
2019-02-23T11:32:49.954Z,49.70
2019-02-23T11:35:18.671Z,49.80
2019-02-23T11:37:47.437Z,49.50
2019-02-23T11:40:16.852Z,49.90
2019-02-23T11:42:47.180Z,49.20
2019-02-23T11:45:15.917Z,50.00
2019-02-23T11:47:44.718Z,49.10
2019-02-23T11:50:13.787Z,49.00
2019-02-23T11:52:42.545Z,48.50
2019-02-23T11:55:11.302Z,48.20
2019-02-23T11:57:40.026Z,46.40
2019-02-23T12:00:11.131Z,45.90
2019-02-23T12:02:40.130Z,46.00
2019-02-23T12:05:09.861Z,48.10
2019-02-23T12:07:38.617Z,47.60
2019-02-23T12:10:12.831Z,47.40
2019-02-23T12:12:41.478Z,47.00
2019-02-23T12:15:10.377Z,45.70
2019-02-23T12:17:39.097Z,45.20
2019-02-23T12:20:09.521Z,44.20
2019-02-23T12:22:38.225Z,44.20
2019-02-23T12:25:07.672Z,44.20
2019-02-23T12:27:36.437Z,43.40
2019-02-23T12:30:07.458Z,42.50
2019-02-23T12:32:36.152Z,42.30
2019-02-23T12:35:05.902Z,41.60
2019-02-23T12:37:34.593Z,42.10
2019-02-23T12:40:03.270Z,41.90
2019-02-23T12:42:31.916Z,42.20
2019-02-23T12:45:00.622Z,42.10
2019-02-23T12:47:29.265Z,41.80
2019-02-23T12:49:57.936Z,41.50
2019-02-23T12:52:26.686Z,41.40
2019-02-23T12:54:55.317Z,40.90
2019-02-23T12:57:24.037Z,40.30
2019-02-23T12:59:52.710Z,40.30
2019-02-23T13:02:21.394Z,40.20
2019-02-23T13:04:50.043Z,40.30
2019-02-23T13:07:18.762Z,40.40
2019-02-23T13:09:47.478Z,40.70
2019-02-23T13:12:21.982Z,40.10
2019-02-23T13:14:56.457Z,40.20
2019-02-23T13:17:49.755Z,40.90
2019-02-23T13:20:39.920Z,40.20
2019-02-23T13:23:17.510Z,40.60
2019-02-23T13:25:55.207Z,40.20
2019-02-23T13:28:35.848Z,40.70
2019-02-23T13:31:25.529Z,40.40
2019-02-23T13:34:13.890Z,40.40
2019-02-23T13:37:09.556Z,40.70
2019-02-23T13:39:57.833Z,41.40
2019-02-23T13:42:48.980Z,42.20
2019-02-23T13:45:37.517Z,41.70
2019-02-23T13:48:32.217Z,40.10
2019-02-23T13:51:19.021Z,40.10
2019-02-23T13:54:11.902Z,40.40
2019-02-23T13:56:49.474Z,39.20
2019-02-23T13:59:50.230Z,40.40
2019-02-23T14:02:36.825Z,39.20
2019-02-23T14:05:17.265Z,37.70
2019-02-23T14:08:17.599Z,38.30
2019-02-23T14:11:10.473Z,37.40
2019-02-23T14:13:50.901Z,38.10
2019-02-23T14:16:40.507Z,38.30
2019-02-23T14:19:30.191Z,37.70
2019-02-23T14:22:26.258Z,37.30
2019-02-23T14:25:20.380Z,37.20
2019-02-23T14:28:13.010Z,36.20
2019-02-23T14:30:53.521Z,36.70
2019-02-23T14:33:46.204Z,37.50
2019-02-23T14:36:29.330Z,37.70
2019-02-23T14:39:17.539Z,37.90
2019-02-23T14:42:10.581Z,38.10
2019-02-23T14:44:45.189Z,38.40
2019-02-23T14:47:28.869Z,38.70
2019-02-23T14:50:15.809Z,39.20
2019-02-23T14:52:53.572Z,40.00
2019-02-23T14:55:40.504Z,40.70
2019-02-23T14:58:17.559Z,40.60
2019-02-23T15:01:07.778Z,40.70
2019-02-23T15:04:04.631Z,41.90
2019-02-23T15:06:53.724Z,41.60
2019-02-23T15:09:46.823Z,42.10
2019-02-23T15:12:24.898Z,42.10
2019-02-23T15:15:02.674Z,42.00
2019-02-23T15:17:49.706Z,41.60
2019-02-23T15:20:41.350Z,41.80
2019-02-23T15:23:53.710Z,42.60
2019-02-23T15:26:57.027Z,43.40
2019-02-23T15:29:31.703Z,44.00
2019-02-23T15:32:20.314Z,43.70
2019-02-23T15:35:00.714Z,44.60
2019-02-23T15:37:38.142Z,44.80
2019-02-23T15:40:24.878Z,44.80
2019-02-23T15:43:08.560Z,45.40
2019-02-23T15:45:46.344Z,45.20
2019-02-23T15:48:32.949Z,45.80
2019-02-23T15:51:01.715Z,45.80
2019-02-23T15:53:30.349Z,46.60
2019-02-23T15:55:59.073Z,46.80
2019-02-23T15:58:27.742Z,47.00
2019-02-23T16:00:56.685Z,47.10
2019-02-23T16:03:25.382Z,46.80
2019-02-23T16:05:54.058Z,46.90
2019-02-23T16:08:22.759Z,47.80
2019-02-23T16:10:51.429Z,49.30
2019-02-23T16:13:20.145Z,49.50
2019-02-23T16:15:48.820Z,50.90
2019-02-23T16:18:17.508Z,49.60
2019-02-23T16:20:46.254Z,49.90
2019-02-23T16:23:14.901Z,50.40
2019-02-23T16:25:43.561Z,50.70
2019-02-23T16:28:12.299Z,50.60
2019-02-23T16:30:40.941Z,52.10
2019-02-23T16:33:09.698Z,51.50
2019-02-23T16:35:38.399Z,51.90
2019-02-23T16:38:07.060Z,52.00
2019-02-23T16:40:35.806Z,52.10
2019-02-23T16:43:04.500Z,52.30
2019-02-23T16:45:33.196Z,53.10
2019-02-23T16:48:01.850Z,52.30
2019-02-23T16:50:30.526Z,52.40
2019-02-23T16:52:59.218Z,52.00
2019-02-23T16:55:27.879Z,52.30
2019-02-23T16:57:56.555Z,53.00
2019-02-23T17:00:25.225Z,53.10
2019-02-23T17:02:53.921Z,52.80
2019-02-23T17:05:22.562Z,53.10
2019-02-23T17:07:51.237Z,53.10
2019-02-23T17:10:19.885Z,53.40
2019-02-23T17:12:48.549Z,53.40
2019-02-23T17:15:17.198Z,54.00
2019-02-23T17:17:45.864Z,54.30
2019-02-23T17:20:14.565Z,55.60
2019-02-23T17:22:43.246Z,55.10
2019-02-23T17:25:11.893Z,55.50
2019-02-23T17:27:40.581Z,55.90
2019-02-23T17:30:09.371Z,55.80
2019-02-23T17:32:38.083Z,55.60
2019-02-23T17:35:07.066Z,56.10
2019-02-23T17:37:35.757Z,56.40
2019-02-23T17:40:05.734Z,56.30
2019-02-23T17:42:34.400Z,56.30
2019-02-23T17:45:03.045Z,56.10
2019-02-23T17:47:31.742Z,56.20
2019-02-23T17:50:00.389Z,56.30
2019-02-23T17:52:29.066Z,56.80
2019-02-23T17:54:57.745Z,57.00
2019-02-23T17:57:26.403Z,57.10
2019-02-23T17:59:55.071Z,57.40
2019-02-23T18:02:23.707Z,57.40
2019-02-23T18:04:52.404Z,57.80
2019-02-23T18:07:21.127Z,58.50
2019-02-23T18:09:49.881Z,58.00
2019-02-23T18:12:18.630Z,58.50
2019-02-23T18:14:47.340Z,59.50
2019-02-23T18:17:15.999Z,60.20
2019-02-23T18:19:44.723Z,60.60
2019-02-23T18:22:13.408Z,60.90
2019-02-23T18:24:42.046Z,61.00
2019-02-23T18:27:10.733Z,60.70
2019-02-23T18:29:39.426Z,61.30
2019-02-23T18:32:08.084Z,60.90
2019-02-23T18:34:36.805Z,60.60
2019-02-23T18:37:05.519Z,60.90
2019-02-23T18:39:37.381Z,61.30
2019-02-23T18:42:06.089Z,61.40
2019-02-23T18:44:34.805Z,61.30
2019-02-23T18:47:03.458Z,60.90
2019-02-23T18:49:32.172Z,60.10
2019-02-23T18:52:00.917Z,59.60
2019-02-23T18:54:29.649Z,59.60
2019-02-23T18:56:58.300Z,60.50
2019-02-23T18:59:26.983Z,60.70
2019-02-23T19:01:55.683Z,60.00
2019-02-23T19:04:24.373Z,59.90
2019-02-23T19:06:53.062Z,60.40
2019-02-23T19:09:21.776Z,59.90
2019-02-23T19:11:50.491Z,60.10
2019-02-23T19:14:19.406Z,60.60
2019-02-23T19:16:49.519Z,60.80
2019-02-23T19:19:18.898Z,60.90
2019-02-23T19:21:47.545Z,60.50
2019-02-23T19:24:16.228Z,60.60
2019-02-23T19:26:44.909Z,60.70
2019-02-23T19:29:13.596Z,61.00
2019-02-23T19:31:42.268Z,61.10
2019-02-23T19:34:10.944Z,60.90
2019-02-23T19:36:39.608Z,61.20
2019-02-23T19:39:08.342Z,61.30
2019-02-23T19:41:37.011Z,62.00
2019-02-23T19:44:06.041Z,62.00
2019-02-23T19:46:35.787Z,62.90
2019-02-23T19:49:04.461Z,62.90
2019-02-23T19:51:33.224Z,63.50
2019-02-23T19:54:01.864Z,64.10
2019-02-23T19:56:30.501Z,64.00
2019-02-23T19:58:59.174Z,64.30
2019-02-23T20:01:27.853Z,64.50
2019-02-23T20:03:56.550Z,64.70
2019-02-23T20:06:25.198Z,64.10
2019-02-23T20:08:53.906Z,63.40
2019-02-23T20:11:22.577Z,62.80
2019-02-23T20:13:51.329Z,62.40
2019-02-23T20:16:19.985Z,63.10
2019-02-23T20:18:48.694Z,63.10
2019-02-23T20:21:17.381Z,63.20
2019-02-23T20:23:47.930Z,62.90
2019-02-23T20:26:16.527Z,62.90
2019-02-23T20:28:45.427Z,62.70
2019-02-23T20:31:14.268Z,63.20
2019-02-23T20:33:42.945Z,63.60
2019-02-23T20:36:11.654Z,63.60
2019-02-23T20:38:40.325Z,63.60
2019-02-23T20:41:09.018Z,63.00
2019-02-23T20:43:37.752Z,63.40
2019-02-23T20:46:06.569Z,63.40
2019-02-23T20:48:35.326Z,63.90
2019-02-23T20:51:03.989Z,64.10
2019-02-23T20:53:32.675Z,64.40
2019-02-23T20:56:01.344Z,64.10
2019-02-23T20:58:30.037Z,64.40
2019-02-23T21:00:58.721Z,64.50
2019-02-23T21:03:27.392Z,64.40
2019-02-23T21:05:56.143Z,64.60
2019-02-23T21:08:24.916Z,65.20
2019-02-23T21:10:53.701Z,65.20
2019-02-23T21:13:22.417Z,65.10
2019-02-23T21:15:51.169Z,65.40
2019-02-23T21:18:19.989Z,65.80
2019-02-23T21:20:48.682Z,66.30
2019-02-23T21:23:17.374Z,66.30
2019-02-23T21:25:46.056Z,66.50
2019-02-23T21:28:14.709Z,66.30
2019-02-23T21:30:43.387Z,66.20
2019-02-23T21:33:12.040Z,66.40
2019-02-23T21:35:40.746Z,66.30
2019-02-23T21:38:09.438Z,66.60
2019-02-23T21:40:38.105Z,66.40
2019-02-23T21:43:06.796Z,66.10
2019-02-23T21:45:35.465Z,66.50
2019-02-23T21:48:04.125Z,66.50
2019-02-23T21:50:32.816Z,66.40
2019-02-23T21:53:01.494Z,67.60
2019-02-23T21:55:30.160Z,67.30
2019-02-23T21:58:12.277Z,67.30
2019-02-23T22:00:40.942Z,67.60
2019-02-23T22:03:09.627Z,67.80
2019-02-23T22:05:38.334Z,67.80
2019-02-23T22:08:07.006Z,68.10
2019-02-23T22:10:35.661Z,68.00
2019-02-23T22:13:04.392Z,68.50
2019-02-23T22:15:33.113Z,68.80
2019-02-23T22:18:01.771Z,69.20
2019-02-23T22:20:30.673Z,69.20
2019-02-23T22:22:59.380Z,69.10
2019-02-23T22:25:28.032Z,69.30
2019-02-23T22:27:56.789Z,69.40
2019-02-23T22:30:25.425Z,68.90
2019-02-23T22:32:54.101Z,68.80
2019-02-23T22:35:22.885Z,69.20
2019-02-23T22:37:51.679Z,69.70
2019-02-23T22:40:20.508Z,69.80
2019-02-23T22:42:49.336Z,70.00
2019-02-23T22:45:20.579Z,70.30
2019-02-23T22:47:49.352Z,70.30
2019-02-23T22:50:18.411Z,70.40
2019-02-23T22:52:47.106Z,70.10
2019-02-23T22:55:15.765Z,70.00
2019-02-23T22:57:44.777Z,70.00
2019-02-23T23:00:15.792Z,70.00
2019-02-23T23:02:44.632Z,70.10
2019-02-23T23:05:13.349Z,70.20
2019-02-23T23:07:42.021Z,70.70
2019-02-23T23:10:10.706Z,71.10
2019-02-23T23:12:39.429Z,71.20
2019-02-23T23:15:08.580Z,71.20
2019-02-23T23:17:37.274Z,71.70
2019-02-23T23:20:08.090Z,72.20
2019-02-23T23:22:37.085Z,72.80
2019-02-23T23:25:07.421Z,73.00
2019-02-23T23:27:36.319Z,73.30
2019-02-23T23:30:07.296Z,73.90
2019-02-23T23:32:36.039Z,74.50
2019-02-23T23:35:05.357Z,74.70
2019-02-23T23:37:34.429Z,74.60
2019-02-23T23:40:03.316Z,74.70
2019-02-23T23:42:31.998Z,74.80
2019-02-23T23:45:00.783Z,74.50
2019-02-23T23:47:29.543Z,74.30
2019-02-23T23:49:58.176Z,74.40
2019-02-23T23:52:26.873Z,74.30
2019-02-23T23:54:55.570Z,73.60
2019-02-23T23:57:24.224Z,73.20
2019-02-23T23:59:52.930Z,73.10
